Aérodrome :
LOGIN :

S'inscrire | Disclaimer

   EN    FR    IT 

 










Légende :    VFR   VFR Marginal   IFR   IFR Intensif   IFR Très Intensif
Visi : 
Plafond : 
>= 8 km
>= 3000ft
5 à 8 km
1000 à 3000 ft
1500m à 5 km
500 à 1000 ft
800 à 1500m
200 à 500 ft
< 800m
< 200 ft
Symboles :   Orages  Brouillard  Fortes neiges  Fortes précipitations  Vent > 20 kt
SIGMETs :   Divers  Orages  Givrage  Turbulence  Onde Orograph.  Cendres Volcan.






- Altitude de l'aérodrome : 499 ft
- Code IATA : TLS


LFBO - Toulouse / Blagnac

DERNIER METAR :
  • 020700Z AUTO VRB02KT 9999 FEW046 OVC064 08/04 Q1014 NOSIG

METARs EXPIRÉS :
  • 020630Z AUTO VRB03KT CAVOK 07/04 Q1014 NOSIG
  • 020600Z AUTO VRB02KT 9999 FEW034 OVC062 07/04 Q1013 NOSIG
  • 020530Z AUTO 01004KT 9999 FEW026 OVC060 07/04 Q1013 NOSIG
  • 020500Z AUTO VRB02KT CAVOK 07/03 Q1013 NOSIG
  • 020430Z AUTO 36003KT 9999 FEW025 OVC056 07/03 Q1013 BECMG 07010KT

TAF TAF LFBO
Valide du 02 à 06h jusqu'au 03 à 12h UTC


020500Z 0206/0312 04007KT 9999 SCT040
TEMPO 0206/0216 VRB02KT
TEMPO 0212/0216 SCT030TCU BKN040
BECMG 0216/0218 28008KT
BECMG 0222/0224 CAVOK
PROB30
TEMPO 0300/0307 BKN008
ATIS : +33 5 62 74 66 36



MET'MAP, la Météo Aéronautique d'un coup d'oeil ! - Copyright ORBIFLY Décembre 2007 - Disclaimer

ORBIFLY MET'MAP TEAM :

Programmation & Développement : Alexandra Zaïnal
Sur une idée originale de : Baudouin d'Aumeries
Assistance à la programmation : Marc-Olivier Méhu
Soutien technique & logistique : Manuel Goepfert

Contact : metmap@orbifly.com




SOURCES & CREDITS :

   NOAA